createdAt,value
2022-12-16T00:00:21.266Z,101092.25
2022-12-16T00:02:50.006Z,101091.34
2022-12-16T00:05:19.355Z,101093.97
2022-12-16T00:07:49.968Z,101096.75
2022-12-16T00:10:18.909Z,101098.63
2022-12-16T00:12:47.601Z,101094.50
2022-12-16T00:15:16.605Z,101095.50
2022-12-16T00:17:45.325Z,101093.13
2022-12-16T00:20:14.580Z,101091.53
2022-12-16T00:22:43.208Z,101095.25
2022-12-16T00:25:13.798Z,101101.44
2022-12-16T00:27:42.418Z,101100.59
2022-12-16T00:30:13.339Z,101098.13
2022-12-16T00:32:42.004Z,101097.22
2022-12-16T00:35:11.358Z,101097.22
2022-12-16T00:37:39.992Z,101097.28
2022-12-16T00:40:10.788Z,101097.22
2022-12-16T00:42:41.418Z,101100.81
2022-12-16T00:45:11.118Z,101105.09
2022-12-16T00:47:43.828Z,101114.50
2022-12-16T00:50:12.819Z,101109.91
2022-12-16T00:52:41.448Z,101113.03
2022-12-16T00:55:12.087Z,101122.25
2022-12-16T00:57:42.761Z,101124.47
2022-12-16T01:00:13.753Z,101119.53
2022-12-16T01:02:42.787Z,101132.09
2022-12-16T01:05:14.133Z,101132.69
2022-12-16T01:07:42.905Z,101132.41
2022-12-16T01:10:12.578Z,101130.66
2022-12-16T01:12:43.228Z,101130.44
2022-12-16T01:15:14.419Z,101137.13
2022-12-16T01:17:43.937Z,101134.50
2022-12-16T01:20:13.767Z,101138.00
2022-12-16T01:22:43.389Z,101140.72
2022-12-16T01:25:14.862Z,101148.84
2022-12-16T01:27:45.502Z,101153.28
2022-12-16T01:30:15.078Z,101159.56
2022-12-16T01:32:44.346Z,101163.84
2022-12-16T01:35:36.399Z,101161.44
2022-12-16T01:38:01.772Z,101172.59
2022-12-16T01:40:32.129Z,101168.88
2022-12-16T01:43:02.851Z,101175.84
2022-12-16T01:45:35.268Z,101173.88
2022-12-16T01:48:27.448Z,101178.53
2022-12-16T01:51:08.679Z,101186.34
2022-12-16T01:53:39.463Z,101179.41
2022-12-16T01:56:09.236Z,101189.91
2022-12-16T01:58:42.303Z,101188.88
2022-12-16T02:01:11.003Z,101190.56
2022-12-16T02:03:40.105Z,101198.47
2022-12-16T02:06:09.591Z,101197.53
2022-12-16T02:08:38.296Z,101197.28
2022-12-16T02:11:27.231Z,101195.41
2022-12-16T02:14:49.886Z,101203.47
2022-12-16T02:17:29.959Z,101212.28
2022-12-16T02:20:25.901Z,101202.53
2022-12-16T02:23:22.550Z,101204.13
2022-12-16T02:26:30.907Z,101210.09
2022-12-16T02:29:28.148Z,101207.34
2022-12-16T02:32:08.721Z,101208.00
2022-12-16T02:34:46.144Z,101206.31
2022-12-16T02:37:25.440Z,101210.91
2022-12-16T02:40:00.913Z,101209.31
2022-12-16T02:42:34.212Z,101207.63
2022-12-16T02:45:07.780Z,101212.28
2022-12-16T02:47:38.461Z,101213.47
2022-12-16T02:50:18.435Z,101208.31
2022-12-16T02:52:47.209Z,101213.13
2022-12-16T02:55:16.572Z,101223.16
2022-12-16T02:58:02.035Z,101222.63
2022-12-16T03:00:40.119Z,101223.56
2022-12-16T03:03:19.375Z,101234.50
2022-12-16T03:05:52.044Z,101237.13
2022-12-16T03:08:25.981Z,101244.19
2022-12-16T03:10:58.837Z,101245.94
2022-12-16T03:13:32.537Z,101246.09
2022-12-16T03:16:03.247Z,101251.44
2022-12-16T03:18:35.101Z,101257.03
2022-12-16T03:21:06.827Z,101274.13
2022-12-16T03:23:42.427Z,101272.94
2022-12-16T03:26:18.501Z,101273.03
2022-12-16T03:28:53.966Z,101278.44
2022-12-16T03:31:36.897Z,101280.16
2022-12-16T03:34:17.816Z,101283.78
2022-12-16T03:36:52.373Z,101283.94
2022-12-16T03:39:22.988Z,101288.19
2022-12-16T03:41:54.771Z,101288.28
2022-12-16T03:44:25.960Z,101298.69
2022-12-16T03:46:54.796Z,101298.94
2022-12-16T03:49:25.631Z,101304.66
2022-12-16T03:51:55.893Z,101301.25
2022-12-16T03:54:25.191Z,101306.66
2022-12-16T03:56:54.180Z,101306.50
2022-12-16T03:59:23.013Z,101304.81
2022-12-16T04:01:52.460Z,101308.47
2022-12-16T04:04:21.256Z,101316.34
2022-12-16T04:07:11.835Z,101318.19
2022-12-16T04:09:40.569Z,101332.41
2022-12-16T04:12:23.804Z,101328.22
2022-12-16T04:15:05.586Z,101336.44
2022-12-16T04:17:47.464Z,101328.97
2022-12-16T04:20:31.564Z,101329.25
2022-12-16T04:23:15.616Z,101330.56
2022-12-16T04:25:44.275Z,101334.34
2022-12-16T04:28:12.963Z,101335.44
2022-12-16T04:30:41.821Z,101335.56
2022-12-16T04:33:27.782Z,101343.69
2022-12-16T04:36:09.635Z,101346.53
2022-12-16T04:38:53.510Z,101351.16
2022-12-16T04:41:35.654Z,101354.09
2022-12-16T04:44:17.891Z,101359.63
2022-12-16T04:47:00.173Z,101357.28
2022-12-16T04:49:42.052Z,101361.16
2022-12-16T04:52:23.954Z,101356.28
2022-12-16T04:55:07.647Z,101361.88
2022-12-16T04:57:49.656Z,101362.16
2022-12-16T05:00:31.578Z,101362.81
2022-12-16T05:03:13.439Z,101362.81
2022-12-16T05:05:55.099Z,101358.06
2022-12-16T05:08:37.061Z,101358.06
2022-12-16T05:11:20.650Z,101362.94
2022-12-16T05:14:02.392Z,101365.63
2022-12-16T05:16:46.575Z,101368.38
2022-12-16T05:19:31.591Z,101373.00
2022-12-16T05:22:13.630Z,101375.03
2022-12-16T05:24:55.427Z,101375.25
2022-12-16T05:27:39.156Z,101376.38
2022-12-16T05:30:23.396Z,101383.44
2022-12-16T05:33:05.236Z,101377.50
2022-12-16T05:35:46.954Z,101379.31
2022-12-16T05:38:28.746Z,101380.31
2022-12-16T05:41:10.570Z,101390.94
2022-12-16T05:43:54.232Z,101394.47
2022-12-16T05:46:37.104Z,101392.88
2022-12-16T05:49:18.776Z,101405.53
2022-12-16T05:52:00.584Z,101410.72
2022-12-16T05:54:42.385Z,101415.28
2022-12-16T05:57:24.182Z,101419.72
2022-12-16T06:00:07.860Z,101412.91
2022-12-16T06:02:49.852Z,101423.34
2022-12-16T06:05:31.773Z,101425.09
2022-12-16T06:08:13.557Z,101425.25
2022-12-16T06:10:55.377Z,101431.38
2022-12-16T06:13:37.335Z,101429.69
2022-12-16T06:16:21.501Z,101424.78
2022-12-16T06:19:03.286Z,101424.56
2022-12-16T06:21:45.103Z,101423.78
2022-12-16T06:24:26.964Z,101434.25
2022-12-16T06:27:08.822Z,101437.78
2022-12-16T06:29:50.654Z,101437.06
2022-12-16T06:32:34.396Z,101437.19
2022-12-16T06:35:16.203Z,101442.50
2022-12-16T06:38:01.525Z,101450.59
2022-12-16T06:40:43.341Z,101459.34
2022-12-16T06:43:27.048Z,101466.53
2022-12-16T06:46:08.968Z,101471.91
2022-12-16T06:48:52.507Z,101475.78
2022-12-16T06:51:34.291Z,101473.97
2022-12-16T06:54:16.171Z,101477.50
2022-12-16T06:56:58.378Z,101485.41
2022-12-16T06:59:40.210Z,101484.53
2022-12-16T07:02:25.465Z,101482.84
2022-12-16T07:05:09.287Z,101486.34
2022-12-16T07:07:51.079Z,101495.16
2022-12-16T07:10:33.016Z,101496.97
2022-12-16T07:13:30.731Z,101497.91
2022-12-16T07:16:14.167Z,101508.44
2022-12-16T07:18:56.008Z,101505.13
2022-12-16T07:21:39.736Z,101503.44
2022-12-16T07:24:21.993Z,101513.97
2022-12-16T07:27:12.287Z,101515.78
2022-12-16T07:29:54.162Z,101517.56
2022-12-16T07:32:36.064Z,101516.81
2022-12-16T07:35:18.501Z,101524.72
2022-12-16T07:38:02.362Z,101527.34
2022-12-16T07:40:44.188Z,101530.88
2022-12-16T07:43:26.064Z,101538.78
2022-12-16T07:46:11.020Z,101542.31
2022-12-16T07:48:52.981Z,101544.03
2022-12-16T07:51:34.885Z,101547.47
2022-12-16T07:54:19.301Z,101549.25
2022-12-16T07:57:01.164Z,101557.03
2022-12-16T07:59:43.016Z,101571.72
2022-12-16T08:02:25.258Z,101576.94
2022-12-16T08:05:07.557Z,101580.34
2022-12-16T08:07:49.431Z,101588.97
2022-12-16T08:10:33.249Z,101588.19
2022-12-16T08:13:19.549Z,101587.94
2022-12-16T08:16:04.081Z,101590.38
2022-12-16T08:18:46.057Z,101589.31
2022-12-16T08:21:28.015Z,101593.47
2022-12-16T08:24:09.630Z,101606.66
2022-12-16T08:26:53.348Z,101604.56
2022-12-16T08:29:44.261Z,101605.91
2022-12-16T08:32:27.035Z,101604.59
2022-12-16T08:35:14.657Z,101606.19
2022-12-16T08:37:56.591Z,101599.56
2022-12-16T08:40:38.408Z,101610.94
2022-12-16T08:43:22.264Z,101603.88
2022-12-16T08:46:07.764Z,101600.34
2022-12-16T08:48:49.614Z,101607.97
2022-12-16T08:51:31.527Z,101601.59
2022-12-16T08:54:13.372Z,101605.59
2022-12-16T08:56:55.212Z,101609.84
2022-12-16T08:59:39.538Z,101605.81
2022-12-16T09:02:21.478Z,101608.31
2022-12-16T09:05:03.384Z,101608.09
2022-12-16T09:07:45.296Z,101614.91
2022-12-16T09:10:27.171Z,101611.50
2022-12-16T09:13:08.924Z,101612.69
2022-12-16T09:15:52.775Z,101612.19
2022-12-16T09:18:34.614Z,101620.97
2022-12-16T09:21:16.695Z,101623.63
2022-12-16T09:23:58.254Z,101618.19
2022-12-16T09:26:44.042Z,101612.72
2022-12-16T09:29:25.950Z,101615.69
2022-12-16T09:32:09.511Z,101615.78
2022-12-16T09:34:51.320Z,101611.22
2022-12-16T09:37:33.154Z,101625.88
2022-12-16T09:40:14.931Z,101630.94
2022-12-16T09:43:05.914Z,101631.56
2022-12-16T09:45:56.785Z,101645.19
2022-12-16T09:48:48.475Z,101646.34
2022-12-16T09:51:31.059Z,101649.72
2022-12-16T09:54:14.688Z,101659.75
2022-12-16T09:56:58.916Z,101659.38
2022-12-16T09:59:47.083Z,101667.78
2022-12-16T10:02:32.350Z,101668.88
2022-12-16T10:05:16.402Z,101677.28
2022-12-16T10:08:06.891Z,101679.78
2022-12-16T10:10:58.927Z,101672.75
2022-12-16T10:13:51.680Z,101673.72
2022-12-16T10:19:27.717Z,101673.94
2022-12-16T10:22:21.923Z,101676.03
2022-12-16T10:25:14.483Z,101677.44
2022-12-16T10:28:01.737Z,101686.13
2022-12-16T10:30:44.154Z,101680.44
2022-12-16T10:33:28.960Z,101677.81
2022-12-16T10:36:12.992Z,101677.16
2022-12-16T10:38:57.973Z,101683.38
2022-12-16T10:41:44.040Z,101686.09
2022-12-16T10:44:38.560Z,101688.50
2022-12-16T10:47:20.551Z,101689.63
2022-12-16T10:50:02.562Z,101690.97
2022-12-16T10:52:46.654Z,101691.53
2022-12-16T10:55:40.292Z,101684.97
2022-12-16T10:58:37.753Z,101687.66
2022-12-16T11:01:37.089Z,101687.00
2022-12-16T11:04:55.640Z,101688.41
2022-12-16T11:07:49.555Z,101691.09
2022-12-16T11:10:50.574Z,101687.97
2022-12-16T11:13:39.923Z,101689.56
2022-12-16T11:16:29.357Z,101694.09
2022-12-16T11:22:53.396Z,101696.78
2022-12-16T11:25:37.360Z,101701.84
2022-12-16T11:28:20.816Z,101698.72
2022-12-16T11:31:16.836Z,101709.69
2022-12-16T11:34:05.381Z,101713.06
2022-12-16T11:36:48.667Z,101712.53
2022-12-16T11:39:36.294Z,101711.22
2022-12-16T11:42:21.040Z,101712.94
2022-12-16T11:45:05.919Z,101710.09
2022-12-16T11:47:54.303Z,101712.66
2022-12-16T11:50:39.393Z,101710.13
2022-12-16T11:53:41.003Z,101711.72
2022-12-16T11:59:16.451Z,101721.13
2022-12-16T12:02:03.242Z,101725.38
2022-12-16T12:04:45.384Z,101724.44
2022-12-16T12:07:42.844Z,101729.63
2022-12-16T12:11:06.755Z,101724.88
2022-12-16T12:14:06.608Z,101722.88
2022-12-16T12:17:04.384Z,101721.81
2022-12-16T12:19:58.773Z,101723.81
2022-12-16T12:22:49.635Z,101727.03
2022-12-16T12:25:39.969Z,101733.50
2022-12-16T12:28:35.520Z,101736.94
2022-12-16T12:31:28.711Z,101746.78
2022-12-16T12:34:23.192Z,101742.81
2022-12-16T12:37:14.775Z,101740.72
2022-12-16T12:40:04.270Z,101745.00
2022-12-16T12:42:56.169Z,101741.50
2022-12-16T12:46:01.246Z,101747.50
2022-12-16T12:48:54.390Z,101747.38
2022-12-16T12:51:48.807Z,101747.66
2022-12-16T12:54:41.882Z,101746.03
2022-12-16T12:57:29.947Z,101750.53
2022-12-16T13:00:15.983Z,101738.84
2022-12-16T13:03:04.762Z,101748.13
2022-12-16T13:05:49.750Z,101752.69
2022-12-16T13:09:14.148Z,101746.94
2022-12-16T13:12:35.971Z,101759.28
2022-12-16T13:15:20.608Z,101756.81
2022-12-16T13:18:42.702Z,101763.00
2022-12-16T13:21:58.172Z,101762.41
2022-12-16T13:25:01.540Z,101764.50
2022-12-16T13:28:01.060Z,101771.47
2022-12-16T13:30:43.065Z,101767.59
2022-12-16T13:33:40.347Z,101769.50
2022-12-16T13:36:26.714Z,101766.66
2022-12-16T13:39:11.193Z,101770.94
2022-12-16T13:42:14.993Z,101770.53
2022-12-16T13:45:43.461Z,101774.59
2022-12-16T13:48:46.493Z,101781.69
2022-12-16T13:52:13.571Z,101776.78
2022-12-16T13:55:01.177Z,101781.28
2022-12-16T13:57:50.135Z,101788.94
2022-12-16T14:00:37.833Z,101788.38
2022-12-16T14:03:26.437Z,101801.03
2022-12-16T14:06:09.865Z,101797.63
2022-12-16T14:09:00.049Z,101796.97
2022-12-16T14:11:58.101Z,101805.19
2022-12-16T14:14:48.451Z,101814.22
2022-12-16T14:17:38.696Z,101813.63
2022-12-16T14:20:30.635Z,101823.44
2022-12-16T14:23:47.108Z,101822.13
2022-12-16T14:26:28.114Z,101817.09
2022-12-16T14:29:10.482Z,101819.66
2022-12-16T14:31:56.663Z,101829.97
2022-12-16T14:34:41.027Z,101826.81
2022-12-16T14:37:39.130Z,101828.78
2022-12-16T14:40:35.339Z,101838.78
2022-12-16T14:43:17.908Z,101845.06
2022-12-16T14:46:04.757Z,101849.50
2022-12-16T14:48:52.313Z,101852.47
2022-12-16T14:51:43.901Z,101869.38
2022-12-16T14:54:40.072Z,101869.03
2022-12-16T14:57:28.880Z,101872.75
2022-12-16T15:00:33.045Z,101881.03
2022-12-16T15:03:25.951Z,101879.75
2022-12-16T15:06:26.143Z,101880.00
2022-12-16T15:09:14.716Z,101884.69
2022-12-16T15:11:58.523Z,101887.75
2022-12-16T15:14:44.515Z,101887.22
2022-12-16T15:17:35.664Z,101887.47
2022-12-16T15:20:17.988Z,101902.59
2022-12-16T15:23:03.904Z,101911.53
2022-12-16T15:25:45.929Z,101912.03
2022-12-16T15:28:38.129Z,101917.09
2022-12-16T15:31:29.772Z,101918.78
2022-12-16T15:34:44.048Z,101922.75
2022-12-16T15:37:39.160Z,101924.88
2022-12-16T15:40:36.317Z,101922.53
2022-12-16T15:43:18.255Z,101930.78
2022-12-16T15:46:04.989Z,101924.00
2022-12-16T15:48:49.657Z,101922.38
2022-12-16T15:51:43.636Z,101934.78
2022-12-16T15:54:32.460Z,101938.56
2022-12-16T15:57:16.473Z,101935.25
2022-12-16T16:00:13.870Z,101945.16
2022-12-16T16:03:03.007Z,101945.41
2022-12-16T16:05:46.273Z,101949.97
2022-12-16T16:08:28.099Z,101953.81
2022-12-16T16:11:10.067Z,101953.13
2022-12-16T16:13:53.909Z,101953.34
2022-12-16T16:16:35.994Z,101956.28
2022-12-16T16:19:18.825Z,101962.59
2022-12-16T16:22:00.917Z,101968.19
2022-12-16T16:24:42.484Z,101977.28
2022-12-16T16:27:28.372Z,101977.56
2022-12-16T16:30:13.014Z,101978.66
2022-12-16T16:32:54.848Z,101984.97
2022-12-16T16:35:36.681Z,101991.31
2022-12-16T16:38:18.905Z,101983.72
2022-12-16T16:41:01.573Z,101988.31
2022-12-16T16:43:44.771Z,101995.69
2022-12-16T16:46:49.190Z,101998.75
2022-12-16T16:49:37.721Z,101999.94
2022-12-16T16:52:22.795Z,102000.38
2022-12-16T16:55:04.546Z,102002.34
2022-12-16T16:57:51.753Z,102014.84
2022-12-16T17:00:33.916Z,102012.56
2022-12-16T17:03:17.993Z,102018.28
2022-12-16T17:06:05.305Z,102018.41
2022-12-16T17:08:47.065Z,102017.88
2022-12-16T17:11:33.113Z,102025.09
2022-12-16T17:14:26.469Z,102030.47
2022-12-16T17:17:08.252Z,102027.19
2022-12-16T17:19:52.038Z,102030.88
2022-12-16T17:22:34.023Z,102035.56
2022-12-16T17:25:15.639Z,102042.25
2022-12-16T17:27:59.872Z,102042.34
2022-12-16T17:30:46.883Z,102049.41
2022-12-16T17:33:29.629Z,102044.34
2022-12-16T17:36:12.958Z,102043.88
2022-12-16T17:38:58.652Z,102048.25
2022-12-16T17:41:42.464Z,102044.03
2022-12-16T17:44:24.425Z,102045.13
2022-12-16T17:47:06.036Z,102040.28
2022-12-16T17:49:47.858Z,102051.72
2022-12-16T17:52:31.859Z,102044.09
2022-12-16T17:55:13.586Z,102049.53
2022-12-16T17:57:55.345Z,102056.59
2022-12-16T18:00:37.272Z,102063.75
2022-12-16T18:03:19.589Z,102061.25
2022-12-16T18:06:01.602Z,102065.78
2022-12-16T18:08:46.102Z,102069.41
2022-12-16T18:11:27.911Z,102079.19
2022-12-16T18:14:09.744Z,102082.00
2022-12-16T18:16:51.577Z,102080.38
2022-12-16T18:19:33.508Z,102088.34
2022-12-16T18:22:21.353Z,102084.09
2022-12-16T18:25:05.112Z,102083.34
2022-12-16T18:27:47.103Z,102091.22
2022-12-16T18:30:28.894Z,102095.97
2022-12-16T18:33:10.671Z,102095.03
2022-12-16T18:35:52.461Z,102095.22
2022-12-16T18:38:35.588Z,102099.84
2022-12-16T18:41:27.072Z,102106.00
2022-12-16T18:44:08.887Z,102098.13
2022-12-16T18:46:50.719Z,102099.78
2022-12-16T18:49:32.589Z,102105.00
2022-12-16T18:52:14.375Z,102106.00
2022-12-16T18:54:56.161Z,102110.53
2022-12-16T18:57:40.144Z,102114.06
2022-12-16T19:00:24.090Z,102116.81
2022-12-16T19:03:06.420Z,102115.31
2022-12-16T19:05:48.424Z,102116.28
2022-12-16T19:08:30.355Z,102112.91
2022-12-16T19:11:12.386Z,102110.69
2022-12-16T19:13:56.170Z,102116.75
2022-12-16T19:16:49.604Z,102128.19
2022-12-16T19:19:43.003Z,102131.88
2022-12-16T19:22:24.779Z,102125.03
2022-12-16T19:25:06.638Z,102123.38
2022-12-16T19:27:48.523Z,102126.09
2022-12-16T19:30:32.476Z,102125.34
2022-12-16T19:33:14.295Z,102127.16
2022-12-16T19:35:56.894Z,102132.47
2022-12-16T19:38:38.917Z,102137.81
2022-12-16T19:41:28.064Z,102138.81
2022-12-16T19:44:09.885Z,102143.28
2022-12-16T19:46:56.059Z,102150.44
2022-12-16T19:49:43.750Z,102147.06
2022-12-16T19:52:26.181Z,102161.13
2022-12-16T19:55:09.759Z,102158.69
2022-12-16T19:57:54.616Z,102154.50
2022-12-16T20:00:37.791Z,102158.00
2022-12-16T20:03:21.569Z,102172.00
2022-12-16T20:06:12.704Z,102171.19
2022-12-16T20:08:54.620Z,102166.16
2022-12-16T20:11:36.290Z,102180.31
2022-12-16T20:14:18.075Z,102182.88
2022-12-16T20:16:59.911Z,102188.13
2022-12-16T20:19:46.281Z,102189.06
2022-12-16T20:22:28.195Z,102193.50
2022-12-16T20:25:10.255Z,102197.13
2022-12-16T20:27:51.838Z,102202.59
2022-12-16T20:30:33.844Z,102188.69
2022-12-16T20:33:15.419Z,102199.38
2022-12-16T20:36:09.048Z,102203.66
2022-12-16T20:38:51.580Z,102210.63
2022-12-16T20:41:33.339Z,102211.56
2022-12-16T20:44:15.234Z,102212.41
2022-12-16T20:46:57.064Z,102212.72
2022-12-16T20:49:38.895Z,102207.63
2022-12-16T20:52:22.681Z,102215.00
2022-12-16T20:55:04.494Z,102215.34
2022-12-16T20:57:46.338Z,102225.41
2022-12-16T21:00:29.984Z,102219.78
2022-12-16T21:03:11.921Z,102221.16
2022-12-16T21:05:53.739Z,102233.97
2022-12-16T21:08:39.927Z,102231.88
2022-12-16T21:11:21.753Z,102235.00
2022-12-16T21:14:03.532Z,102233.00
2022-12-16T21:16:45.413Z,102230.00
2022-12-16T21:19:33.058Z,102241.16
2022-12-16T21:22:15.612Z,102238.19
2022-12-16T21:24:59.125Z,102245.66
2022-12-16T21:27:40.983Z,102238.03
2022-12-16T21:30:24.981Z,102245.78
2022-12-16T21:33:15.401Z,102246.50
2022-12-16T21:35:57.180Z,102249.06
2022-12-16T21:38:38.991Z,102253.41
2022-12-16T21:41:22.732Z,102258.41
2022-12-16T21:44:05.996Z,102262.69
2022-12-16T21:46:47.797Z,102267.03
2022-12-16T21:49:29.773Z,102266.28
2022-12-16T21:52:11.310Z,102261.94
2022-12-16T21:54:53.101Z,102260.84
2022-12-16T21:57:38.852Z,102259.31
2022-12-16T22:00:24.003Z,102263.88
2022-12-16T22:03:05.900Z,102269.78
2022-12-16T22:05:47.574Z,102275.22
2022-12-16T22:08:29.411Z,102277.53
2022-12-16T22:11:11.264Z,102280.28
2022-12-16T22:13:55.050Z,102277.03
2022-12-16T22:16:38.282Z,102275.13
2022-12-16T22:19:20.261Z,102281.19
2022-12-16T22:22:02.643Z,102289.91
2022-12-16T22:24:44.398Z,102296.84
2022-12-16T22:27:26.209Z,102299.03
2022-12-16T22:30:10.003Z,102298.03
2022-12-16T22:32:51.822Z,102294.50
2022-12-16T22:35:33.869Z,102302.88
2022-12-16T22:38:15.740Z,102307.88
2022-12-16T22:40:57.497Z,102310.25
2022-12-16T22:43:43.435Z,102313.91
2022-12-16T22:46:27.162Z,102314.94
2022-12-16T22:49:09.001Z,102328.72
2022-12-16T22:51:51.426Z,102329.44
2022-12-16T22:54:33.567Z,102333.19
2022-12-16T22:57:15.360Z,102331.50
2022-12-16T22:59:57.435Z,102340.16
2022-12-16T23:02:40.948Z,102347.25
2022-12-16T23:05:27.566Z,102342.69
2022-12-16T23:08:10.801Z,102343.59
2022-12-16T23:10:52.558Z,102345.41
2022-12-16T23:13:40.616Z,102343.31
2022-12-16T23:16:23.288Z,102347.09
2022-12-16T23:19:07.075Z,102346.13
2022-12-16T23:21:48.874Z,102353.09
2022-12-16T23:24:30.651Z,102346.94
2022-12-16T23:27:12.885Z,102351.28
2022-12-16T23:29:56.736Z,102346.56
2022-12-16T23:32:38.830Z,102346.41
2022-12-16T23:35:23.337Z,102331.97
2022-12-16T23:38:05.100Z,102335.50
2022-12-16T23:40:46.906Z,102335.59
2022-12-16T23:43:28.647Z,102340.84
2022-12-16T23:46:10.545Z,102334.81
2022-12-16T23:48:52.310Z,102342.50
2022-12-16T23:51:36.065Z,102340.06
2022-12-16T23:54:18.098Z,102343.38
2022-12-16T23:56:59.681Z,102339.56
2022-12-16T23:59:41.528Z,102340.28
